createdAt,value
2018-11-29T00:01:30.571Z,37.40
2018-11-29T00:04:01.316Z,26.90
2018-11-29T00:06:49.750Z,24.17
2018-11-29T00:09:20.612Z,19.80
2018-11-29T00:11:51.093Z,18.50
2018-11-29T00:14:22.672Z,14.37
2018-11-29T00:16:53.396Z,16.30
2018-11-29T00:19:23.953Z,23.00
2018-11-29T00:21:55.797Z,50.40
2018-11-29T00:24:26.951Z,42.27
2018-11-29T00:26:57.373Z,22.80
2018-11-29T00:29:27.938Z,23.57
2018-11-29T00:31:58.972Z,19.27
2018-11-29T00:34:29.833Z,17.23
2018-11-29T00:37:01.073Z,12.77
2018-11-29T00:39:31.793Z,12.30
2018-11-29T00:42:03.192Z,13.80
2018-11-29T00:44:34.410Z,13.60
2018-11-29T00:47:05.212Z,9.07
2018-11-29T00:49:36.048Z,10.93
2018-11-29T00:52:06.992Z,19.60
2018-11-29T00:54:38.272Z,13.17
2018-11-29T00:57:09.092Z,10.93
2018-11-29T00:59:40.171Z,16.60
2018-11-29T01:02:10.993Z,13.27
2018-11-29T01:04:42.192Z,10.23
2018-11-29T01:07:12.973Z,16.63
2018-11-29T01:09:44.123Z,29.83
2018-11-29T01:12:15.410Z,21.17
2018-11-29T01:14:46.021Z,16.33
2018-11-29T01:17:17.051Z,16.80
2018-11-29T01:19:48.431Z,11.67
2018-11-29T01:22:19.513Z,15.63
2018-11-29T01:24:50.173Z,18.20
2018-11-29T01:27:20.896Z,9.37
2018-11-29T01:29:51.953Z,14.27
2018-11-29T01:32:22.693Z,11.93
2018-11-29T01:34:53.352Z,9.43
2018-11-29T01:37:24.316Z,10.40
2018-11-29T01:39:55.153Z,10.47
2018-11-29T01:42:25.650Z,12.17
2018-11-29T01:44:56.593Z,13.90
2018-11-29T01:47:27.577Z,20.27
2018-11-29T01:49:58.132Z,7.13
2018-11-29T01:52:29.693Z,13.57
2018-11-29T01:55:00.760Z,11.43
2018-11-29T01:57:31.748Z,14.03
2018-11-29T02:00:02.733Z,12.97
2018-11-29T02:02:34.036Z,10.07
2018-11-29T02:05:05.532Z,11.27
2018-11-29T02:07:36.917Z,12.27
2018-11-29T02:10:14.657Z,12.57
2018-11-29T02:12:46.333Z,8.00
2018-11-29T02:15:17.414Z,7.87
2018-11-29T02:17:48.774Z,12.73
2018-11-29T02:20:20.316Z,10.60
2018-11-29T02:22:51.274Z,10.83
2018-11-29T02:25:23.035Z,10.27
2018-11-29T02:27:54.194Z,8.10
2018-11-29T02:30:24.717Z,16.93
2018-11-29T02:32:56.274Z,12.27
2018-11-29T02:35:27.854Z,15.50
2018-11-29T02:37:58.514Z,11.50
2018-11-29T02:40:29.607Z,8.83
2018-11-29T02:43:00.454Z,11.90
2018-11-29T02:45:32.092Z,14.50
2018-11-29T02:48:03.455Z,11.97
2018-11-29T02:50:34.495Z,9.20
2018-11-29T02:53:06.255Z,7.47
2018-11-29T02:55:36.674Z,8.97
2018-11-29T02:58:07.637Z,8.97
2018-11-29T03:04:15.359Z,7.17
2018-11-29T03:06:45.935Z,6.70
2018-11-29T03:09:16.702Z,8.73
2018-11-29T03:11:47.578Z,9.07
2018-11-29T03:14:19.639Z,9.20
2018-11-29T03:16:50.419Z,8.83
2018-11-29T03:19:21.099Z,5.37
2018-11-29T03:21:51.319Z,8.07
2018-11-29T03:24:22.007Z,9.77
2018-11-29T03:26:52.454Z,5.73
2018-11-29T03:29:22.614Z,6.80
2018-11-29T03:31:53.540Z,4.87
2018-11-29T03:34:25.262Z,8.43
2018-11-29T03:36:56.259Z,7.50
2018-11-29T03:39:27.300Z,8.37
2018-11-29T03:41:58.720Z,3.37
2018-11-29T03:44:30.322Z,8.40
2018-11-29T03:47:01.138Z,5.90
2018-11-29T03:49:32.099Z,10.23
2018-11-29T03:52:03.057Z,8.83
2018-11-29T03:54:33.853Z,6.50
2018-11-29T03:57:05.079Z,8.47
2018-11-29T03:59:36.298Z,10.80
2018-11-29T04:02:08.238Z,16.10
2018-11-29T04:04:39.279Z,8.50
2018-11-29T04:07:10.019Z,9.43
2018-11-29T04:09:41.694Z,6.17
2018-11-29T04:12:12.197Z,9.00
2018-11-29T04:14:43.438Z,6.70
2018-11-29T04:17:14.818Z,7.67
2018-11-29T04:19:45.417Z,12.03
2018-11-29T04:22:16.698Z,7.77
2018-11-29T04:24:47.822Z,7.50
2018-11-29T04:27:18.541Z,5.97
2018-11-29T04:29:49.496Z,6.27
2018-11-29T04:32:21.061Z,7.00
2018-11-29T04:34:52.299Z,10.03
2018-11-29T04:37:23.438Z,9.73
2018-11-29T04:39:54.366Z,11.47
2018-11-29T04:42:25.299Z,18.53
2018-11-29T04:44:56.519Z,12.57
2018-11-29T04:47:27.161Z,10.20
2018-11-29T04:49:57.898Z,5.67
2018-11-29T04:52:28.978Z,13.90
2018-11-29T04:55:00.479Z,11.30
2018-11-29T04:57:32.117Z,8.83
2018-11-29T05:00:03.277Z,9.20
2018-11-29T05:02:33.960Z,10.23
2018-11-29T05:05:05.217Z,13.03
2018-11-29T05:07:35.959Z,18.10
2018-11-29T05:10:07.937Z,17.57
2018-11-29T05:12:38.958Z,14.47
2018-11-29T05:15:11.038Z,9.13
2018-11-29T05:17:42.366Z,10.70
2018-11-29T05:20:13.246Z,11.73
2018-11-29T05:22:44.123Z,11.33
2018-11-29T05:25:15.179Z,8.63
2018-11-29T05:27:46.158Z,9.97
2018-11-29T05:30:17.198Z,17.77
2018-11-29T05:32:48.558Z,13.87
2018-11-29T05:35:18.992Z,14.90
2018-11-29T05:37:49.458Z,20.13
2018-11-29T05:40:20.538Z,13.13
2018-11-29T05:42:51.758Z,12.53
2018-11-29T05:45:22.797Z,10.43
2018-11-29T05:47:53.858Z,20.03
2018-11-29T05:50:25.198Z,16.37
2018-11-29T05:52:56.258Z,18.40
2018-11-29T05:55:27.599Z,22.00
2018-11-29T05:57:58.012Z,12.83
2018-11-29T06:00:29.038Z,13.37
2018-11-29T06:03:00.068Z,11.60
2018-11-29T06:05:31.617Z,15.37
2018-11-29T06:08:02.678Z,14.47
2018-11-29T06:10:33.558Z,10.43
2018-11-29T06:13:04.358Z,9.00
2018-11-29T06:15:35.277Z,9.03
2018-11-29T06:18:06.658Z,9.07
2018-11-29T06:20:37.558Z,12.37
2018-11-29T06:23:08.223Z,9.33
2018-11-29T06:25:38.920Z,15.50
2018-11-29T06:28:09.857Z,10.10
2018-11-29T06:30:40.897Z,10.37
2018-11-29T06:33:11.717Z,10.47
2018-11-29T06:35:42.338Z,10.93
2018-11-29T06:38:13.358Z,16.17
2018-11-29T06:40:44.397Z,13.00
2018-11-29T06:43:15.139Z,19.80
2018-11-29T06:45:45.759Z,10.53
2018-11-29T06:48:16.358Z,7.13
2018-11-29T06:50:47.278Z,12.83
2018-11-29T06:53:23.442Z,12.47
2018-11-29T06:55:54.731Z,14.93
2018-11-29T06:58:25.553Z,12.47
2018-11-29T07:00:56.658Z,21.47
2018-11-29T07:03:28.939Z,20.30
2018-11-29T07:05:58.318Z,17.50
2018-11-29T07:08:29.378Z,17.50
2018-11-29T07:11:00.397Z,20.23
2018-11-29T07:13:31.459Z,15.23
2018-11-29T07:16:02.230Z,19.87
2018-11-29T07:18:33.203Z,16.53
2018-11-29T07:21:15.058Z,26.73
2018-11-29T07:23:46.158Z,32.23
2018-11-29T07:26:17.418Z,26.73
2018-11-29T07:28:48.361Z,26.93
2018-11-29T07:31:19.278Z,31.93
2018-11-29T07:33:50.038Z,32.73
2018-11-29T07:36:21.378Z,30.77
2018-11-29T07:38:52.116Z,37.90
2018-11-29T07:41:23.138Z,38.43
2018-11-29T07:43:53.738Z,38.13
2018-11-29T07:46:24.580Z,33.87
2018-11-29T07:48:55.955Z,36.07
2018-11-29T07:51:26.598Z,36.30
2018-11-29T07:53:57.135Z,27.30
2018-11-29T07:56:28.118Z,27.73
2018-11-29T07:58:58.797Z,23.63
2018-11-29T08:01:29.837Z,29.00
2018-11-29T08:04:00.379Z,30.43
2018-11-29T08:06:31.300Z,29.70
2018-11-29T08:09:02.036Z,27.50
2018-11-29T08:11:32.935Z,29.13
2018-11-29T08:14:04.038Z,32.30
2018-11-29T08:16:34.570Z,29.97
2018-11-29T08:19:05.498Z,26.37
2018-11-29T08:21:36.561Z,24.03
2018-11-29T08:24:07.638Z,27.90
2018-11-29T08:26:37.818Z,20.80
2018-11-29T08:29:08.478Z,24.60
2018-11-29T08:31:39.115Z,24.70
2018-11-29T08:34:10.023Z,18.60
2018-11-29T08:36:40.818Z,28.07
2018-11-29T08:39:11.298Z,29.30
2018-11-29T08:41:42.117Z,24.13
2018-11-29T08:44:12.578Z,21.93
2018-11-29T08:46:44.458Z,20.00
2018-11-29T08:49:14.815Z,21.30
2018-11-29T08:51:45.597Z,20.03
2018-11-29T08:54:16.757Z,21.23
2018-11-29T08:56:47.464Z,22.40
2018-11-29T08:59:18.337Z,24.10
2018-11-29T09:01:49.222Z,22.23
2018-11-29T09:04:20.077Z,21.10
2018-11-29T09:06:50.978Z,22.23
2018-11-29T09:09:21.898Z,20.30
2018-11-29T09:11:53.198Z,21.47
2018-11-29T09:14:23.737Z,22.97
2018-11-29T09:16:54.900Z,21.70
2018-11-29T09:19:25.138Z,25.77
2018-11-29T09:21:55.578Z,27.80
2018-11-29T09:24:25.779Z,25.77
2018-11-29T09:26:56.697Z,21.60
2018-11-29T09:29:27.560Z,23.60
2018-11-29T09:31:58.678Z,25.97
2018-11-29T09:34:29.677Z,25.07
2018-11-29T09:37:00.801Z,19.93
2018-11-29T09:39:31.037Z,21.47
2018-11-29T09:42:03.017Z,20.83
2018-11-29T09:44:32.218Z,19.67
2018-11-29T09:47:02.394Z,23.57
2018-11-29T09:49:33.280Z,19.33
2018-11-29T09:52:03.755Z,19.37
2018-11-29T09:54:34.479Z,19.30
2018-11-29T09:57:05.238Z,20.20
2018-11-29T09:59:35.911Z,20.30
2018-11-29T10:02:06.759Z,21.57
2018-11-29T10:04:37.998Z,23.87
2018-11-29T10:07:08.851Z,22.47
2018-11-29T10:09:40.190Z,17.17
2018-11-29T10:12:11.038Z,17.00
2018-11-29T10:14:42.498Z,18.97
2018-11-29T10:17:13.426Z,20.47
2018-11-29T10:19:44.879Z,14.37
2018-11-29T10:22:15.678Z,16.13
2018-11-29T10:24:46.519Z,15.47
2018-11-29T10:27:17.357Z,13.57
2018-11-29T10:29:48.400Z,12.73
2018-11-29T10:32:18.876Z,14.03
2018-11-29T10:34:49.217Z,12.37
2018-11-29T10:37:20.006Z,17.33
2018-11-29T10:39:50.447Z,11.93
2018-11-29T10:42:20.739Z,13.80
2018-11-29T10:44:51.784Z,14.57
2018-11-29T10:47:22.288Z,12.97
2018-11-29T10:49:53.145Z,13.33
2018-11-29T10:52:23.899Z,13.13
2018-11-29T10:54:54.007Z,13.87
2018-11-29T10:57:24.958Z,14.80
2018-11-29T10:59:55.619Z,12.43
2018-11-29T11:02:30.538Z,15.83
2018-11-29T11:05:01.659Z,10.67
2018-11-29T11:07:33.354Z,12.90
2018-11-29T11:10:04.558Z,14.00
2018-11-29T11:12:36.014Z,11.73
2018-11-29T11:15:06.599Z,11.43
2018-11-29T11:17:36.745Z,14.10
2018-11-29T11:20:07.043Z,15.87
2018-11-29T11:22:38.018Z,12.17
2018-11-29T11:25:10.338Z,11.70
2018-11-29T11:27:40.899Z,16.70
2018-11-29T11:30:18.903Z,10.07
2018-11-29T11:32:50.678Z,14.60
2018-11-29T11:35:21.035Z,15.50
2018-11-29T11:37:51.918Z,14.93
2018-11-29T11:40:22.881Z,14.73
2018-11-29T11:42:54.019Z,16.13
2018-11-29T11:45:24.479Z,23.70
2018-11-29T11:47:54.879Z,14.07
2018-11-29T11:50:26.518Z,14.83
2018-11-29T11:52:57.718Z,14.80
2018-11-29T11:55:30.320Z,14.40
2018-11-29T11:57:58.722Z,15.43
2018-11-29T12:00:30.338Z,15.50
2018-11-29T12:03:17.227Z,12.40
2018-11-29T12:05:47.582Z,13.67
2018-11-29T12:08:18.479Z,10.57
2018-11-29T12:10:49.457Z,13.13
2018-11-29T12:13:19.980Z,15.00
2018-11-29T12:15:50.419Z,16.53
2018-11-29T12:18:21.508Z,13.87
2018-11-29T12:20:52.319Z,13.57
2018-11-29T12:23:22.939Z,15.60
2018-11-29T12:25:53.334Z,14.77
2018-11-29T12:28:24.040Z,15.33
2018-11-29T12:30:54.758Z,14.57
2018-11-29T12:33:24.879Z,14.13
2018-11-29T12:35:55.537Z,16.73
2018-11-29T12:38:26.499Z,13.73
2018-11-29T12:40:57.378Z,15.30
2018-11-29T12:43:28.579Z,14.53
2018-11-29T12:45:59.679Z,14.13
2018-11-29T12:48:30.498Z,11.93
2018-11-29T12:51:01.698Z,14.50
2018-11-29T12:53:32.518Z,15.63
2018-11-29T12:56:03.178Z,14.40
2018-11-29T12:58:33.779Z,15.40
2018-11-29T13:01:04.425Z,15.47
2018-11-29T13:03:35.100Z,17.63
2018-11-29T13:06:07.058Z,17.43
2018-11-29T13:08:37.759Z,13.93
2018-11-29T13:11:10.728Z,13.17
2018-11-29T13:13:39.238Z,17.60
2018-11-29T13:16:09.738Z,14.00
2018-11-29T13:18:40.558Z,12.90
2018-11-29T13:21:10.946Z,17.40
2018-11-29T13:23:41.083Z,16.80
2018-11-29T13:26:11.440Z,13.87
2018-11-29T13:28:42.026Z,10.93
2018-11-29T13:31:12.099Z,17.33
2018-11-29T13:33:42.852Z,10.73
2018-11-29T13:36:13.738Z,16.93
2018-11-29T13:38:44.379Z,19.40
2018-11-29T13:41:15.180Z,18.23
2018-11-29T13:43:45.776Z,13.87
2018-11-29T13:46:17.929Z,15.00
2018-11-29T13:48:48.940Z,19.53
2018-11-29T13:51:19.558Z,14.37
2018-11-29T13:53:49.909Z,19.13
2018-11-29T13:56:20.760Z,14.60
2018-11-29T13:58:51.459Z,15.50
2018-11-29T14:01:22.238Z,14.97
2018-11-29T14:03:53.223Z,14.63
2018-11-29T14:06:24.139Z,14.03
2018-11-29T14:09:00.904Z,14.10
2018-11-29T14:11:31.909Z,14.30
2018-11-29T14:14:02.822Z,14.80
2018-11-29T14:16:33.560Z,12.20
2018-11-29T14:19:04.361Z,14.33
2018-11-29T14:21:35.938Z,15.70
2018-11-29T14:24:06.337Z,15.37
2018-11-29T14:26:36.771Z,18.63
2018-11-29T14:29:07.617Z,17.67
2018-11-29T14:31:38.585Z,20.20
2018-11-29T14:34:09.518Z,13.27
2018-11-29T14:36:40.360Z,17.27
2018-11-29T14:39:11.640Z,12.03
2018-11-29T14:41:41.971Z,12.57
2018-11-29T14:44:12.659Z,14.40
2018-11-29T14:46:43.164Z,13.30
2018-11-29T14:49:13.659Z,11.63
2018-11-29T14:51:48.163Z,11.97
2018-11-29T14:54:14.669Z,15.73
2018-11-29T14:56:45.038Z,11.67
2018-11-29T14:59:15.902Z,14.10
2018-11-29T15:01:46.618Z,14.40
2018-11-29T15:04:17.213Z,12.43
2018-11-29T15:06:47.739Z,10.07
2018-11-29T15:09:18.318Z,15.83
2018-11-29T15:11:49.079Z,10.23
2018-11-29T15:14:20.260Z,12.37
2018-11-29T15:16:50.905Z,11.80
2018-11-29T15:19:21.618Z,13.07
2018-11-29T15:21:52.678Z,13.07
2018-11-29T15:24:23.358Z,14.20
2018-11-29T15:26:54.523Z,13.40
2018-11-29T15:29:26.321Z,11.67
2018-11-29T15:31:57.238Z,13.97
2018-11-29T15:34:27.876Z,12.93
2018-11-29T15:36:59.059Z,12.37
2018-11-29T15:39:30.019Z,15.93
2018-11-29T15:42:00.924Z,15.20
2018-11-29T15:44:31.978Z,13.47
2018-11-29T15:47:02.613Z,8.07
2018-11-29T15:49:33.999Z,8.57
2018-11-29T15:52:05.725Z,15.57
2018-11-29T15:54:36.758Z,9.83
2018-11-29T15:57:08.412Z,14.80
2018-11-29T15:59:39.459Z,12.57
2018-11-29T16:02:10.698Z,11.03
2018-11-29T16:04:41.898Z,14.70
2018-11-29T16:07:12.486Z,10.20
2018-11-29T16:09:43.619Z,11.50
2018-11-29T16:12:14.767Z,15.20
2018-11-29T16:14:45.872Z,13.47
2018-11-29T16:17:17.678Z,13.63
2018-11-29T16:19:48.438Z,10.73
2018-11-29T16:22:19.301Z,12.23
2018-11-29T16:24:50.299Z,13.20
2018-11-29T16:27:21.197Z,11.83
2018-11-29T16:29:51.881Z,11.50
2018-11-29T16:32:22.838Z,10.20
2018-11-29T16:34:54.038Z,12.17
2018-11-29T16:37:25.357Z,10.00
2018-11-29T16:39:56.879Z,11.37
2018-11-29T16:42:27.957Z,12.03
2018-11-29T16:44:59.458Z,17.03
2018-11-29T16:47:30.418Z,10.70
2018-11-29T16:50:01.501Z,11.50
2018-11-29T16:52:33.517Z,8.70
2018-11-29T16:55:04.558Z,11.40
2018-11-29T16:57:35.920Z,10.23
2018-11-29T17:00:12.019Z,16.00
2018-11-29T17:02:42.698Z,12.73
2018-11-29T17:05:15.119Z,11.53
2018-11-29T17:07:46.077Z,11.80
2018-11-29T17:10:19.986Z,14.00
2018-11-29T17:12:52.500Z,9.07
2018-11-29T17:15:24.041Z,13.60
2018-11-29T17:17:55.437Z,13.73
2018-11-29T17:20:26.818Z,12.00
2018-11-29T17:22:58.018Z,10.03
2018-11-29T17:25:28.778Z,11.93
2018-11-29T17:27:59.957Z,8.13
2018-11-29T17:30:31.337Z,9.60
2018-11-29T17:33:02.659Z,8.33
2018-11-29T17:35:33.550Z,10.33
2018-11-29T17:38:04.717Z,13.57
2018-11-29T17:40:36.258Z,9.43
2018-11-29T17:43:08.337Z,11.90
2018-11-29T17:45:39.777Z,10.00
2018-11-29T17:48:11.916Z,10.87
2018-11-29T17:50:44.241Z,11.47
2018-11-29T17:53:15.218Z,11.17
2018-11-29T17:55:46.649Z,10.37
2018-11-29T17:58:17.897Z,12.30
2018-11-29T18:00:50.878Z,15.63
2018-11-29T18:03:23.237Z,15.70
2018-11-29T18:05:54.079Z,12.50
2018-11-29T18:08:24.702Z,10.77
2018-11-29T18:10:57.771Z,10.23
2018-11-29T18:13:38.855Z,8.03
2018-11-29T18:16:14.486Z,14.30
2018-11-29T18:18:46.159Z,9.63
2018-11-29T18:24:00.815Z,12.43
2018-11-29T18:26:31.789Z,9.97
2018-11-29T18:29:02.421Z,11.00
2018-11-29T18:31:33.512Z,9.87
2018-11-29T18:34:04.757Z,10.03
2018-11-29T18:36:36.467Z,11.87
2018-11-29T18:39:09.376Z,12.57
2018-11-29T18:41:40.349Z,12.33
2018-11-29T18:44:10.998Z,7.57
2018-11-29T18:46:41.942Z,13.43
2018-11-29T18:49:12.755Z,10.20
2018-11-29T18:51:43.975Z,13.70
2018-11-29T18:54:14.798Z,9.17
2018-11-29T18:56:45.177Z,10.27
2018-11-29T18:59:15.637Z,11.63
2018-11-29T19:01:46.178Z,10.40
2018-11-29T19:04:17.517Z,12.03
2018-11-29T19:06:48.338Z,13.00
2018-11-29T19:09:19.597Z,14.50
2018-11-29T19:11:50.278Z,13.27
2018-11-29T19:14:21.309Z,12.77
2018-11-29T19:16:52.078Z,9.57
2018-11-29T19:19:22.929Z,11.47
2018-11-29T19:21:53.678Z,15.63
2018-11-29T19:24:24.494Z,11.90
2018-11-29T19:26:55.118Z,14.93
2018-11-29T19:29:26.617Z,12.03
2018-11-29T19:31:57.755Z,11.33
2018-11-29T19:34:28.547Z,11.87
2018-11-29T19:36:59.460Z,14.33
2018-11-29T19:39:30.153Z,10.00
2018-11-29T19:42:01.279Z,14.80
2018-11-29T19:44:32.358Z,11.57
2018-11-29T19:47:03.595Z,10.13
2018-11-29T19:49:34.377Z,8.67
2018-11-29T19:52:06.297Z,11.37
2018-11-29T19:54:38.417Z,15.20
2018-11-29T19:57:09.377Z,13.17
2018-11-29T19:59:40.300Z,13.87
2018-11-29T20:02:11.017Z,11.07
2018-11-29T20:04:43.458Z,11.30
2018-11-29T20:07:14.328Z,11.27
2018-11-29T20:09:45.558Z,14.40
2018-11-29T20:12:16.380Z,11.53
2018-11-29T20:14:47.676Z,13.57
2018-11-29T20:17:18.737Z,10.60
2018-11-29T20:19:49.767Z,10.63
2018-11-29T20:22:20.941Z,13.17
2018-11-29T20:24:52.081Z,13.00
2018-11-29T20:27:22.937Z,13.80
2018-11-29T20:29:54.198Z,11.67
2018-11-29T20:32:24.938Z,9.87
2018-11-29T20:34:55.600Z,14.10
2018-11-29T20:37:26.557Z,12.30
2018-11-29T20:39:58.506Z,12.17
2018-11-29T20:42:29.609Z,10.33
2018-11-29T20:45:00.779Z,14.57
2018-11-29T20:47:32.018Z,10.90
2018-11-29T20:50:03.137Z,14.97
2018-11-29T20:52:33.878Z,12.23
2018-11-29T20:55:05.301Z,10.53
2018-11-29T20:57:36.057Z,16.57
2018-11-29T21:00:10.817Z,10.07
2018-11-29T21:02:42.280Z,12.63
2018-11-29T21:05:14.585Z,12.23
2018-11-29T21:07:47.157Z,14.53
2018-11-29T21:10:20.240Z,11.87
2018-11-29T21:12:51.138Z,9.50
2018-11-29T21:15:21.875Z,14.83
2018-11-29T21:17:52.417Z,16.57
2018-11-29T21:20:23.617Z,17.53
2018-11-29T21:22:54.659Z,15.50
2018-11-29T21:25:26.140Z,12.10
2018-11-29T21:27:56.718Z,10.70
2018-11-29T21:30:28.258Z,12.00
2018-11-29T21:33:00.237Z,14.30
2018-11-29T21:35:30.835Z,12.30
2018-11-29T21:38:03.619Z,12.27
2018-11-29T21:40:34.600Z,12.27
2018-11-29T21:43:05.337Z,17.60
2018-11-29T21:45:36.876Z,16.73
2018-11-29T21:48:08.017Z,14.90
2018-11-29T21:50:38.896Z,9.10
2018-11-29T21:53:10.339Z,15.40
2018-11-29T21:55:42.036Z,12.10
2018-11-29T21:58:12.917Z,11.67
2018-11-29T22:00:44.078Z,12.60
2018-11-29T22:03:15.060Z,11.97
2018-11-29T22:05:45.558Z,12.80
2018-11-29T22:08:16.206Z,15.47
2018-11-29T22:10:46.629Z,12.40
2018-11-29T22:13:17.671Z,11.80
2018-11-29T22:15:48.418Z,11.50
2018-11-29T22:18:23.767Z,13.37
2018-11-29T22:21:00.637Z,13.27
2018-11-29T22:23:31.957Z,15.30
2018-11-29T22:26:04.004Z,12.50
2018-11-29T22:28:34.716Z,11.17
2018-11-29T22:31:06.056Z,12.43
2018-11-29T22:33:37.216Z,13.07
2018-11-29T22:36:07.837Z,13.37
2018-11-29T22:38:38.958Z,11.87
2018-11-29T22:41:09.998Z,14.83
2018-11-29T22:43:40.984Z,12.90
2018-11-29T22:46:11.839Z,8.17
2018-11-29T22:48:42.616Z,15.83
2018-11-29T22:51:13.335Z,12.00
2018-11-29T22:53:44.074Z,12.33
2018-11-29T22:56:14.737Z,13.07
2018-11-29T22:58:45.796Z,10.57
2018-11-29T23:01:21.896Z,14.30
2018-11-29T23:03:52.877Z,12.07
2018-11-29T23:06:23.736Z,11.23
2018-11-29T23:08:55.619Z,10.30
2018-11-29T23:11:26.758Z,10.57
2018-11-29T23:13:57.898Z,14.77
2018-11-29T23:16:28.857Z,10.93
2018-11-29T23:18:59.404Z,9.33
2018-11-29T23:21:30.477Z,15.40
2018-11-29T23:24:01.520Z,11.80
2018-11-29T23:26:32.282Z,11.80
2018-11-29T23:29:03.056Z,14.13
2018-11-29T23:31:34.338Z,12.27
2018-11-29T23:34:05.737Z,8.50
2018-11-29T23:36:36.637Z,18.97
2018-11-29T23:39:08.740Z,10.27
2018-11-29T23:41:39.399Z,11.77
2018-11-29T23:44:09.977Z,8.00
2018-11-29T23:46:41.856Z,11.57
2018-11-29T23:49:12.878Z,8.20
2018-11-29T23:51:44.235Z,10.73
2018-11-29T23:54:15.418Z,8.97
2018-11-29T23:56:46.417Z,10.93
2018-11-29T23:59:17.277Z,12.63
